createdAt,value
2017-05-09T00:00:54.332Z,1012.08
2017-05-09T00:01:54.980Z,1012.11
2017-05-09T00:02:55.621Z,1012.03
2017-05-09T00:03:56.265Z,1012.02
2017-05-09T00:04:56.911Z,1011.99
2017-05-09T00:05:57.701Z,1012.02
2017-05-09T00:06:58.343Z,1012.03
2017-05-09T00:07:58.987Z,1012.03
2017-05-09T00:08:59.631Z,1011.97
2017-05-09T00:10:00.271Z,1012.08
2017-05-09T00:11:00.915Z,1011.96
2017-05-09T00:12:01.557Z,1011.94
2017-05-09T00:13:02.198Z,1011.99
2017-05-09T00:14:03.039Z,1011.90
2017-05-09T00:15:03.675Z,1011.93
2017-05-09T00:16:04.318Z,1011.94
2017-05-09T00:17:04.957Z,1011.93
2017-05-09T00:18:05.598Z,1011.95
2017-05-09T00:19:06.239Z,1011.93
2017-05-09T00:20:06.880Z,1011.90
2017-05-09T00:21:07.523Z,1011.85
2017-05-09T00:22:08.164Z,1011.87
2017-05-09T00:23:08.958Z,1011.80
2017-05-09T00:24:09.605Z,1011.83
2017-05-09T00:25:10.240Z,1011.77
2017-05-09T00:26:10.882Z,1011.80
2017-05-09T00:27:11.527Z,1011.82
2017-05-09T00:28:12.224Z,1011.80
2017-05-09T00:29:12.864Z,1011.68
2017-05-09T00:30:13.503Z,1011.74
2017-05-09T00:31:14.345Z,1011.68
2017-05-09T00:32:14.984Z,1011.65
2017-05-09T00:33:15.627Z,1011.64
2017-05-09T00:34:16.269Z,1011.68
2017-05-09T00:35:16.910Z,1011.54
2017-05-09T00:36:17.553Z,1011.57
2017-05-09T00:37:18.196Z,1011.55
2017-05-09T00:38:18.834Z,1011.47
2017-05-09T00:39:19.675Z,1011.47
2017-05-09T00:40:20.318Z,1011.43
2017-05-09T00:41:20.959Z,1011.45
2017-05-09T00:42:21.601Z,1011.44
2017-05-09T00:43:22.245Z,1011.44
2017-05-09T00:44:22.882Z,1011.45
2017-05-09T00:45:23.524Z,1011.38
2017-05-09T00:46:24.168Z,1011.34
2017-05-09T00:47:25.010Z,1011.45
2017-05-09T00:48:25.657Z,1011.32
2017-05-09T00:49:26.296Z,1011.39
2017-05-09T00:50:26.940Z,1011.32
2017-05-09T00:51:27.580Z,1011.32
2017-05-09T00:52:28.220Z,1011.22
2017-05-09T00:53:28.864Z,1011.33
2017-05-09T00:54:29.511Z,1011.25
2017-05-09T00:55:30.353Z,1011.19
2017-05-09T00:56:30.993Z,1011.23
2017-05-09T00:57:31.639Z,1011.22
2017-05-09T00:58:32.280Z,1011.15
2017-05-09T00:59:32.923Z,1011.20
2017-05-09T01:00:33.567Z,1011.19
2017-05-09T01:01:34.212Z,1011.13
2017-05-09T01:02:34.851Z,1011.08
2017-05-09T01:03:35.493Z,1011.14
2017-05-09T01:04:36.336Z,1011.08
2017-05-09T01:05:36.981Z,1011.15
2017-05-09T01:06:37.624Z,1011.11
2017-05-09T01:07:38.263Z,1011.17
2017-05-09T01:08:38.899Z,1011.08
2017-05-09T01:09:39.541Z,1011.10
2017-05-09T01:10:40.186Z,1011.02
2017-05-09T01:11:40.828Z,1011.07
2017-05-09T01:12:41.671Z,1011.12
2017-05-09T01:13:46.317Z,1011.08
2017-05-09T01:14:46.959Z,1011.08
2017-05-09T01:15:47.604Z,1011.01
2017-05-09T01:16:48.249Z,1010.99
2017-05-09T01:17:48.889Z,1011.03
2017-05-09T01:18:49.526Z,1011.00
2017-05-09T01:19:50.167Z,1010.99
2017-05-09T01:20:50.962Z,1010.94
2017-05-09T01:21:51.604Z,1011.06
2017-05-09T01:22:52.248Z,1010.94
2017-05-09T01:23:52.889Z,1010.94
2017-05-09T01:24:53.530Z,1010.98
2017-05-09T01:25:54.173Z,1010.96
2017-05-09T01:26:54.812Z,1010.92
2017-05-09T01:27:55.450Z,1010.96
2017-05-09T01:28:56.293Z,1010.93
2017-05-09T01:29:56.939Z,1010.88
2017-05-09T01:30:57.578Z,1010.87
2017-05-09T01:31:58.221Z,1010.83
2017-05-09T01:32:58.864Z,1010.87
2017-05-09T01:33:59.505Z,1010.87
2017-05-09T01:35:00.149Z,1010.81
2017-05-09T01:36:00.791Z,1010.85
2017-05-09T01:37:01.587Z,1010.85
2017-05-09T01:38:02.228Z,1010.70
2017-05-09T01:39:02.871Z,1010.81
2017-05-09T01:40:03.509Z,1010.69
2017-05-09T01:41:04.154Z,1010.74
2017-05-09T01:42:04.794Z,1010.71
2017-05-09T01:43:05.439Z,1010.71
2017-05-09T01:44:06.082Z,1010.73
2017-05-09T01:45:06.724Z,1010.74
2017-05-09T01:46:07.561Z,1010.69
2017-05-09T01:47:08.203Z,1010.77
2017-05-09T01:48:08.844Z,1010.65
2017-05-09T01:49:09.488Z,1010.70
2017-05-09T01:50:10.129Z,1010.70
2017-05-09T01:51:10.768Z,1010.68
2017-05-09T01:52:11.410Z,1010.69
2017-05-09T01:53:12.053Z,1010.60
2017-05-09T01:54:12.889Z,1010.68
2017-05-09T01:55:13.536Z,1010.71
2017-05-09T01:56:14.177Z,1010.75
2017-05-09T01:57:14.818Z,1010.68
2017-05-09T01:58:15.462Z,1010.61
2017-05-09T01:59:16.103Z,1010.68
2017-05-09T02:00:16.749Z,1010.65
2017-05-09T02:01:17.391Z,1010.73
2017-05-09T02:02:18.183Z,1010.59
2017-05-09T02:03:18.827Z,1010.66
2017-05-09T02:04:19.468Z,1010.60
2017-05-09T02:05:20.112Z,1010.59
2017-05-09T02:06:20.749Z,1010.57
2017-05-09T02:07:21.392Z,1010.53
2017-05-09T02:08:22.032Z,1010.49
2017-05-09T02:09:22.673Z,1010.46
2017-05-09T02:10:23.516Z,1010.55
2017-05-09T02:11:24.162Z,1010.43
2017-05-09T02:12:24.806Z,1010.51
2017-05-09T02:13:25.394Z,1010.50
2017-05-09T02:14:26.030Z,1010.45
2017-05-09T02:15:26.676Z,1010.47
2017-05-09T02:16:27.322Z,1010.40
2017-05-09T02:17:27.962Z,1010.45
2017-05-09T02:18:28.604Z,1010.41
2017-05-09T02:19:29.445Z,1010.38
2017-05-09T02:20:30.087Z,1010.41
2017-05-09T02:21:30.731Z,1010.40
2017-05-09T02:22:31.372Z,1010.40
2017-05-09T02:23:32.010Z,1010.40
2017-05-09T02:24:32.653Z,1010.40
2017-05-09T02:25:33.293Z,1010.30
2017-05-09T02:26:33.936Z,1010.32
2017-05-09T02:27:34.825Z,1010.42
2017-05-09T02:28:35.470Z,1010.28
2017-05-09T02:29:36.107Z,1010.33
2017-05-09T02:30:36.747Z,1010.31
2017-05-09T02:31:37.389Z,1010.30
2017-05-09T02:32:38.032Z,1010.27
2017-05-09T02:33:38.675Z,1010.30
2017-05-09T02:34:39.316Z,1010.24
2017-05-09T02:35:40.107Z,1010.21
2017-05-09T02:36:40.752Z,1010.20
2017-05-09T02:37:41.393Z,1010.20
2017-05-09T02:38:42.033Z,1010.14
2017-05-09T02:39:42.675Z,1010.20
2017-05-09T02:40:43.319Z,1010.18
2017-05-09T02:41:43.962Z,1010.15
2017-05-09T02:42:44.607Z,1010.18
2017-05-09T02:43:45.501Z,1010.09
2017-05-09T02:44:46.143Z,1010.11
2017-05-09T02:45:46.786Z,1010.07
2017-05-09T02:46:47.429Z,1010.07
2017-05-09T02:47:48.070Z,1010.14
2017-05-09T02:48:48.712Z,1010.09
2017-05-09T02:49:49.354Z,1010.10
2017-05-09T02:50:49.998Z,1010.08
2017-05-09T02:51:50.838Z,1010.09
2017-05-09T02:52:51.481Z,1010.10
2017-05-09T02:53:52.122Z,1010.07
2017-05-09T02:54:52.758Z,1010.01
2017-05-09T02:55:53.398Z,1010.08
2017-05-09T02:56:54.034Z,1010.01
2017-05-09T02:57:54.675Z,1010.05
2017-05-09T02:58:55.319Z,1010.01
2017-05-09T02:59:55.956Z,1009.98
2017-05-09T03:00:56.747Z,1009.98
2017-05-09T03:01:57.393Z,1009.96
2017-05-09T03:02:58.035Z,1009.92
2017-05-09T03:03:58.679Z,1009.96
2017-05-09T03:04:59.320Z,1009.89
2017-05-09T03:05:59.957Z,1009.78
2017-05-09T03:07:00.600Z,1009.88
2017-05-09T03:08:01.239Z,1009.89
2017-05-09T03:09:02.081Z,1009.85
2017-05-09T03:10:02.721Z,1009.83
2017-05-09T03:11:03.362Z,1009.75
2017-05-09T03:12:04.006Z,1009.84
2017-05-09T03:13:04.649Z,1009.76
2017-05-09T03:14:05.291Z,1009.77
2017-05-09T03:15:05.935Z,1009.78
2017-05-09T03:16:06.575Z,1009.70
2017-05-09T03:17:07.418Z,1009.74
2017-05-09T03:18:08.064Z,1009.68
2017-05-09T03:19:08.706Z,1009.69
2017-05-09T03:20:09.347Z,1009.66
2017-05-09T03:21:09.985Z,1009.69
2017-05-09T03:22:10.630Z,1009.68
2017-05-09T03:23:11.268Z,1009.63
2017-05-09T03:24:11.909Z,1009.62
2017-05-09T03:25:12.801Z,1009.62
2017-05-09T03:26:13.443Z,1009.60
2017-05-09T03:27:14.087Z,1009.56
2017-05-09T03:28:14.728Z,1009.50
2017-05-09T03:29:15.367Z,1009.62
2017-05-09T03:30:16.013Z,1009.49
2017-05-09T03:31:16.655Z,1009.46
2017-05-09T03:32:17.296Z,1009.50
2017-05-09T03:33:17.935Z,1009.48
2017-05-09T03:34:18.778Z,1009.45
2017-05-09T03:35:19.415Z,1009.45
2017-05-09T03:36:20.057Z,1009.50
2017-05-09T03:37:20.696Z,1009.48
2017-05-09T03:38:21.338Z,1009.45
2017-05-09T03:39:21.980Z,1009.33
2017-05-09T03:40:22.621Z,1009.39
2017-05-09T03:41:23.269Z,1009.44
2017-05-09T03:42:24.055Z,1009.43
2017-05-09T03:43:24.694Z,1009.39
2017-05-09T03:44:25.333Z,1009.38
2017-05-09T03:45:25.973Z,1009.41
2017-05-09T03:46:26.612Z,1009.38
2017-05-09T03:47:27.253Z,1009.44
2017-05-09T03:48:27.898Z,1009.36
2017-05-09T03:49:28.539Z,1009.31
2017-05-09T03:50:29.481Z,1009.42
2017-05-09T03:51:30.130Z,1009.38
2017-05-09T03:52:30.770Z,1009.38
2017-05-09T03:53:31.409Z,1009.41
2017-05-09T03:54:32.050Z,1009.35
2017-05-09T03:55:32.691Z,1009.35
2017-05-09T03:56:33.333Z,1009.38
2017-05-09T03:57:33.968Z,1009.32
2017-05-09T03:58:34.909Z,1009.39
2017-05-09T03:59:35.547Z,1009.34
2017-05-09T04:00:36.190Z,1009.39
2017-05-09T04:01:36.833Z,1009.44
2017-05-09T04:02:37.478Z,1009.42
2017-05-09T04:03:38.122Z,1009.45
2017-05-09T04:04:38.763Z,1009.39
2017-05-09T04:05:39.406Z,1009.43
2017-05-09T04:06:40.291Z,1009.38
2017-05-09T04:07:40.936Z,1009.38
2017-05-09T04:08:41.578Z,1009.34
2017-05-09T04:09:42.222Z,1009.35
2017-05-09T04:10:42.861Z,1009.28
2017-05-09T04:11:43.504Z,1009.30
2017-05-09T04:12:44.147Z,1009.33
2017-05-09T04:13:44.789Z,1009.29
2017-05-09T04:14:45.431Z,1009.26
2017-05-09T04:15:46.276Z,1009.32
2017-05-09T04:16:46.918Z,1009.27
2017-05-09T04:17:47.559Z,1009.30
2017-05-09T04:18:48.199Z,1009.26
2017-05-09T04:19:48.839Z,1009.29
2017-05-09T04:20:49.481Z,1009.35
2017-05-09T04:21:50.122Z,1009.27
2017-05-09T04:22:50.759Z,1009.32
2017-05-09T04:23:51.601Z,1009.33
2017-05-09T04:24:52.242Z,1009.40
2017-05-09T04:25:52.885Z,1009.39
2017-05-09T04:26:53.526Z,1009.44
2017-05-09T04:27:54.171Z,1009.40
2017-05-09T04:28:54.806Z,1009.42
2017-05-09T04:29:55.450Z,1009.53
2017-05-09T04:30:56.090Z,1009.53
2017-05-09T04:31:56.932Z,1009.49
2017-05-09T04:32:57.572Z,1009.57
2017-05-09T04:33:58.215Z,1009.47
2017-05-09T04:34:58.858Z,1009.53
2017-05-09T04:35:59.499Z,1009.51
2017-05-09T04:37:00.136Z,1009.62
2017-05-09T04:38:00.776Z,1009.57
2017-05-09T04:39:01.415Z,1009.65
2017-05-09T04:40:02.354Z,1009.71
2017-05-09T04:41:02.996Z,1009.64
2017-05-09T04:42:03.639Z,1009.68
2017-05-09T04:43:04.289Z,1009.69
2017-05-09T04:44:05.246Z,1009.68
2017-05-09T04:45:05.887Z,1009.66
2017-05-09T04:46:06.524Z,1009.70
2017-05-09T04:47:07.165Z,1009.75
2017-05-09T04:48:07.865Z,1009.77
2017-05-09T04:49:08.707Z,1009.79
2017-05-09T04:50:09.353Z,1009.88
2017-05-09T04:51:09.992Z,1009.88
2017-05-09T04:52:10.634Z,1009.93
2017-05-09T04:53:11.276Z,1009.97
2017-05-09T04:54:11.920Z,1010.00
2017-05-09T04:55:12.564Z,1010.00
2017-05-09T04:56:13.202Z,1010.01
2017-05-09T04:57:14.246Z,1010.11
2017-05-09T04:58:14.885Z,1010.11
2017-05-09T04:59:15.528Z,1010.09
2017-05-09T05:00:16.171Z,1010.08
2017-05-09T05:01:16.811Z,1010.09
2017-05-09T05:02:17.455Z,1010.15
2017-05-09T05:03:18.095Z,1010.05
2017-05-09T05:04:18.739Z,1010.06
2017-05-09T05:05:19.582Z,1010.05
2017-05-09T05:06:20.225Z,1010.05
2017-05-09T05:07:20.864Z,1010.02
2017-05-09T05:08:21.509Z,1010.02
2017-05-09T05:09:22.147Z,1010.02
2017-05-09T05:10:22.790Z,1009.97
2017-05-09T05:11:23.435Z,1009.98
2017-05-09T05:12:24.081Z,1010.04
2017-05-09T05:13:24.868Z,1010.03
2017-05-09T05:14:25.513Z,1009.87
2017-05-09T05:15:26.158Z,1009.98
2017-05-09T05:16:26.794Z,1010.02
2017-05-09T05:17:27.438Z,1010.02
2017-05-09T05:18:28.076Z,1009.99
2017-05-09T05:19:28.718Z,1009.94
2017-05-09T05:20:29.359Z,1010.01
2017-05-09T05:21:30.203Z,1009.94
2017-05-09T05:22:30.843Z,1009.83
2017-05-09T05:23:31.485Z,1009.79
2017-05-09T05:24:32.126Z,1009.84
2017-05-09T05:25:32.767Z,1009.91
2017-05-09T05:26:33.404Z,1009.80
2017-05-09T05:27:34.045Z,1009.80
2017-05-09T05:28:34.687Z,1009.89
2017-05-09T05:29:35.328Z,1009.88
2017-05-09T05:30:36.271Z,1009.91
2017-05-09T05:31:36.906Z,1009.96
2017-05-09T05:32:37.550Z,1009.98
2017-05-09T05:33:38.189Z,1009.97
2017-05-09T05:34:38.826Z,1009.95
2017-05-09T05:35:39.476Z,1010.01
2017-05-09T05:36:40.118Z,1010.01
2017-05-09T05:37:40.760Z,1010.07
2017-05-09T05:38:41.754Z,1010.04
2017-05-09T05:39:42.395Z,1009.98
2017-05-09T05:40:43.038Z,1009.96
2017-05-09T05:41:43.682Z,1009.98
2017-05-09T05:42:44.324Z,1010.06
2017-05-09T05:43:44.966Z,1010.01
2017-05-09T05:44:45.606Z,1009.88
2017-05-09T05:45:46.249Z,1009.99
2017-05-09T05:46:47.140Z,1009.96
2017-05-09T05:47:47.783Z,1009.96
2017-05-09T05:48:48.423Z,1009.99
2017-05-09T05:49:49.067Z,1009.93
2017-05-09T05:50:49.706Z,1010.04
2017-05-09T05:51:50.349Z,1010.01
2017-05-09T05:52:50.989Z,1010.07
2017-05-09T05:53:51.632Z,1010.01
2017-05-09T05:54:52.424Z,1010.08
2017-05-09T05:55:53.061Z,1010.08
2017-05-09T05:56:53.705Z,1010.02
2017-05-09T05:57:54.351Z,1010.03
2017-05-09T05:58:54.993Z,1009.97
2017-05-09T05:59:55.632Z,1009.97
2017-05-09T06:00:56.269Z,1009.96
2017-05-09T06:01:56.908Z,1009.87
2017-05-09T06:02:57.551Z,1009.80
2017-05-09T06:03:58.439Z,1009.89
2017-05-09T06:04:59.082Z,1009.89
2017-05-09T06:05:59.724Z,1009.91
2017-05-09T06:07:00.368Z,1009.92
2017-05-09T06:08:01.007Z,1009.84
2017-05-09T06:09:01.651Z,1009.84
2017-05-09T06:10:02.289Z,1009.93
2017-05-09T06:11:02.928Z,1009.79
2017-05-09T06:12:03.773Z,1009.76
2017-05-09T06:13:04.420Z,1009.80
2017-05-09T06:14:05.062Z,1009.72
2017-05-09T06:15:05.703Z,1009.64
2017-05-09T06:16:06.344Z,1009.64
2017-05-09T06:17:06.986Z,1009.60
2017-05-09T06:18:07.627Z,1009.57
2017-05-09T06:19:08.264Z,1009.48
2017-05-09T06:20:09.108Z,1009.48
2017-05-09T06:21:09.745Z,1009.51
2017-05-09T06:22:10.387Z,1009.53
2017-05-09T06:23:11.029Z,1009.49
2017-05-09T06:24:11.670Z,1009.49
2017-05-09T06:25:12.314Z,1009.51
2017-05-09T06:26:12.955Z,1009.52
2017-05-09T06:27:13.602Z,1009.47
2017-05-09T06:28:14.439Z,1009.51
2017-05-09T06:29:15.078Z,1009.42
2017-05-09T06:30:15.721Z,1009.47
2017-05-09T06:31:16.359Z,1009.37
2017-05-09T06:32:17.000Z,1009.44
2017-05-09T06:33:17.640Z,1009.38
2017-05-09T06:34:18.284Z,1009.45
2017-05-09T06:35:18.927Z,1009.45
2017-05-09T06:36:19.771Z,1009.38
2017-05-09T06:37:20.409Z,1009.44
2017-05-09T06:38:21.048Z,1009.43
2017-05-09T06:39:21.686Z,1009.43
2017-05-09T06:40:22.326Z,1009.44
2017-05-09T06:41:22.913Z,1009.34
2017-05-09T06:42:23.557Z,1009.35
2017-05-09T06:43:24.194Z,1009.27
2017-05-09T06:44:24.840Z,1009.35
2017-05-09T06:45:25.674Z,1009.28
2017-05-09T06:46:26.319Z,1009.35
2017-05-09T06:47:26.964Z,1009.27
2017-05-09T06:48:27.604Z,1009.25
2017-05-09T06:49:28.246Z,1009.23
2017-05-09T06:50:28.887Z,1009.18
2017-05-09T06:51:29.533Z,1009.25
2017-05-09T06:52:30.167Z,1009.19
2017-05-09T06:53:31.015Z,1009.16
2017-05-09T06:54:31.654Z,1009.09
2017-05-09T06:55:32.292Z,1009.06
2017-05-09T06:56:32.934Z,1009.11
2017-05-09T06:57:33.575Z,1009.09
2017-05-09T06:58:34.220Z,1009.11
2017-05-09T06:59:34.861Z,1009.07
2017-05-09T07:00:35.505Z,1009.07
2017-05-09T07:01:36.344Z,1009.06
2017-05-09T07:02:36.985Z,1009.07
2017-05-09T07:03:37.629Z,1009.04
2017-05-09T07:04:38.273Z,1009.07
2017-05-09T07:05:38.909Z,1009.04
2017-05-09T07:06:39.553Z,1009.10
2017-05-09T07:07:40.192Z,1009.10
2017-05-09T07:08:40.835Z,1009.15
2017-05-09T07:09:41.681Z,1009.21
2017-05-09T07:10:42.318Z,1009.27
2017-05-09T07:11:42.961Z,1009.24
2017-05-09T07:12:43.602Z,1009.30
2017-05-09T07:13:44.243Z,1009.32
2017-05-09T07:14:44.889Z,1009.28
2017-05-09T07:15:45.534Z,1009.34
2017-05-09T07:16:46.172Z,1009.31
2017-05-09T07:17:46.809Z,1009.35
2017-05-09T07:18:47.602Z,1009.33
2017-05-09T07:19:48.239Z,1009.36
2017-05-09T07:20:48.879Z,1009.33
2017-05-09T07:21:49.521Z,1009.36
2017-05-09T07:22:50.162Z,1009.33
2017-05-09T07:23:50.806Z,1009.30
2017-05-09T07:24:51.447Z,1009.31
2017-05-09T07:25:52.091Z,1009.34
2017-05-09T07:26:52.930Z,1009.37
2017-05-09T07:27:53.569Z,1009.34
2017-05-09T07:28:54.208Z,1009.28
2017-05-09T07:29:54.849Z,1009.24
2017-05-09T07:30:55.486Z,1009.16
2017-05-09T07:31:56.130Z,1009.16
2017-05-09T07:32:56.766Z,1009.19
2017-05-09T07:33:57.408Z,1009.16
2017-05-09T07:34:58.244Z,1009.18
2017-05-09T07:35:58.892Z,1009.06
2017-05-09T07:36:59.531Z,1009.11
2017-05-09T07:38:00.172Z,1009.07
2017-05-09T07:39:00.811Z,1009.11
2017-05-09T07:40:01.453Z,1009.15
2017-05-09T07:41:02.091Z,1009.10
2017-05-09T07:42:02.732Z,1009.18
2017-05-09T07:43:03.571Z,1009.19
2017-05-09T07:44:04.213Z,1009.28
2017-05-09T07:45:04.856Z,1009.19
2017-05-09T07:46:05.497Z,1009.20
2017-05-09T07:47:06.138Z,1009.25
2017-05-09T07:48:06.781Z,1009.22
2017-05-09T07:49:07.425Z,1009.25
2017-05-09T07:50:08.065Z,1009.17
2017-05-09T07:51:08.908Z,1009.13
2017-05-09T07:52:09.554Z,1009.23
2017-05-09T07:53:10.245Z,1009.26
2017-05-09T07:54:10.887Z,1009.16
2017-05-09T07:55:11.526Z,1009.15
2017-05-09T07:56:12.165Z,1009.25
2017-05-09T07:57:12.958Z,1009.21
2017-05-09T07:58:13.595Z,1009.12
2017-05-09T07:59:14.236Z,1009.22
2017-05-09T08:00:15.078Z,1009.20
2017-05-09T08:01:15.724Z,1009.17
2017-05-09T08:02:16.318Z,1009.10
2017-05-09T08:03:17.279Z,1009.07
2017-05-09T08:04:17.928Z,1009.10
2017-05-09T08:05:18.566Z,1009.10
2017-05-09T08:06:19.209Z,1009.12
2017-05-09T08:07:19.850Z,1009.08
2017-05-09T08:08:20.691Z,1009.20
2017-05-09T08:09:21.337Z,1009.15
2017-05-09T08:10:22.036Z,1009.19
2017-05-09T08:11:22.684Z,1009.14
2017-05-09T08:12:23.320Z,1009.21
2017-05-09T08:13:23.961Z,1009.19
2017-05-09T08:14:24.601Z,1009.21
2017-05-09T08:15:25.237Z,1009.18
2017-05-09T08:16:26.181Z,1009.21
2017-05-09T08:17:26.824Z,1009.27
2017-05-09T08:18:27.464Z,1009.19
2017-05-09T08:19:28.107Z,1009.21
2017-05-09T08:20:28.749Z,1009.16
2017-05-09T08:21:29.391Z,1009.19
2017-05-09T08:22:30.032Z,1009.19
2017-05-09T08:23:30.676Z,1009.14
2017-05-09T08:24:31.518Z,1009.20
2017-05-09T08:25:32.158Z,1009.12
2017-05-09T08:26:32.799Z,1009.05
2017-05-09T08:27:33.441Z,1009.09
2017-05-09T08:28:34.084Z,1009.05
2017-05-09T08:29:34.720Z,1009.09
2017-05-09T08:30:35.359Z,1009.12
2017-05-09T08:31:36.002Z,1009.09
2017-05-09T08:32:36.645Z,1009.20
2017-05-09T08:33:37.435Z,1009.14
2017-05-09T08:34:38.080Z,1009.14
2017-05-09T08:35:38.720Z,1009.13
2017-05-09T08:36:39.353Z,1009.15
2017-05-09T08:37:39.995Z,1009.19
2017-05-09T08:38:40.641Z,1009.15
2017-05-09T08:39:41.278Z,1009.22
2017-05-09T08:40:41.921Z,1009.19
2017-05-09T08:41:42.814Z,1009.21
2017-05-09T08:42:43.457Z,1009.12
2017-05-09T08:43:44.098Z,1009.24
2017-05-09T08:44:44.741Z,1009.19
2017-05-09T08:45:45.383Z,1009.18
2017-05-09T08:46:46.026Z,1009.19
2017-05-09T08:47:46.669Z,1009.18
2017-05-09T08:48:47.322Z,1009.17
2017-05-09T08:49:48.113Z,1009.09
2017-05-09T08:50:52.613Z,1009.07
2017-05-09T08:51:53.258Z,1009.08
2017-05-09T08:52:53.894Z,1009.15
2017-05-09T08:53:54.537Z,1009.09
2017-05-09T08:54:55.181Z,1009.08
2017-05-09T08:55:55.822Z,1009.06
2017-05-09T08:56:56.463Z,1009.08
2017-05-09T08:57:57.305Z,1009.12
2017-05-09T08:58:57.950Z,1009.17
2017-05-09T08:59:58.590Z,1009.16
2017-05-09T09:00:59.225Z,1009.07
2017-05-09T09:01:59.868Z,1009.13
2017-05-09T09:03:00.512Z,1009.10
2017-05-09T09:04:01.152Z,1009.08
2017-05-09T09:05:01.791Z,1009.10
2017-05-09T09:06:02.630Z,1009.16
2017-05-09T09:07:03.270Z,1009.08
2017-05-09T09:08:03.909Z,1009.08
2017-05-09T09:09:04.553Z,1009.09
2017-05-09T09:10:05.197Z,1009.10
2017-05-09T09:11:05.835Z,1009.18
2017-05-09T09:12:06.476Z,1009.08
2017-05-09T09:13:07.120Z,1009.09
2017-05-09T09:14:07.761Z,1009.12
2017-05-09T09:15:08.602Z,1009.07
2017-05-09T09:16:09.247Z,1009.19
2017-05-09T09:17:09.887Z,1009.11
2017-05-09T09:18:10.527Z,1009.11
2017-05-09T09:19:11.165Z,1009.18
2017-05-09T09:20:11.809Z,1009.17
2017-05-09T09:21:12.448Z,1009.24
2017-05-09T09:22:13.089Z,1009.29
2017-05-09T09:23:13.883Z,1009.26
2017-05-09T09:24:14.527Z,1009.27
2017-05-09T09:25:15.169Z,1009.17
2017-05-09T09:26:15.805Z,1009.32
2017-05-09T09:27:16.442Z,1009.37
2017-05-09T09:28:17.088Z,1009.37
2017-05-09T09:29:17.727Z,1009.37
2017-05-09T09:30:18.370Z,1009.38
2017-05-09T09:31:19.209Z,1009.32
2017-05-09T09:32:19.854Z,1009.28
2017-05-09T09:33:20.493Z,1009.35
2017-05-09T09:34:21.132Z,1009.37
2017-05-09T09:35:21.769Z,1009.40
2017-05-09T09:36:22.413Z,1009.40
2017-05-09T09:37:23.056Z,1009.38
2017-05-09T09:38:23.706Z,1009.41
2017-05-09T09:39:24.545Z,1009.50
2017-05-09T09:40:25.192Z,1009.53
2017-05-09T09:41:25.833Z,1009.57
2017-05-09T09:42:26.473Z,1009.52
2017-05-09T09:43:27.115Z,1009.50
2017-05-09T09:44:27.759Z,1009.48
2017-05-09T09:45:28.401Z,1009.50
2017-05-09T09:46:29.046Z,1009.58
2017-05-09T09:47:29.681Z,1009.53
2017-05-09T09:48:30.573Z,1009.45
2017-05-09T09:49:31.213Z,1009.55
2017-05-09T09:50:31.856Z,1009.52
2017-05-09T09:51:32.500Z,1009.52
2017-05-09T09:52:33.137Z,1009.46
2017-05-09T09:53:33.791Z,1009.65
2017-05-09T09:54:34.477Z,1009.59
2017-05-09T09:55:35.117Z,1009.54
2017-05-09T09:56:35.909Z,1009.53
2017-05-09T09:57:36.555Z,1009.65
2017-05-09T09:58:37.194Z,1009.58
2017-05-09T09:59:37.831Z,1009.67
2017-05-09T10:00:38.474Z,1009.56
2017-05-09T10:01:39.115Z,1009.62
2017-05-09T10:02:39.758Z,1009.61
2017-05-09T10:03:40.401Z,1009.58
2017-05-09T10:04:41.244Z,1009.56
2017-05-09T10:05:41.880Z,1009.68
2017-05-09T10:06:42.525Z,1009.70
2017-05-09T10:07:43.171Z,1009.74
2017-05-09T10:08:43.813Z,1009.65
2017-05-09T10:09:44.448Z,1009.68
2017-05-09T10:10:45.090Z,1009.62
2017-05-09T10:11:45.731Z,1009.62
2017-05-09T10:12:46.569Z,1009.62
2017-05-09T10:13:47.211Z,1009.63
2017-05-09T10:14:47.852Z,1009.62
2017-05-09T10:15:48.494Z,1009.85
2017-05-09T10:16:49.136Z,1009.76
2017-05-09T10:17:49.779Z,1009.84
2017-05-09T10:18:50.417Z,1009.91
2017-05-09T10:19:51.058Z,1009.96
2017-05-09T10:20:51.848Z,1009.89
2017-05-09T10:21:52.487Z,1009.84
2017-05-09T10:22:53.129Z,1009.80
2017-05-09T10:23:53.769Z,1009.72
2017-05-09T10:24:54.407Z,1009.70
2017-05-09T10:25:55.046Z,1009.75
2017-05-09T10:26:55.686Z,1009.65
2017-05-09T10:27:56.327Z,1009.67
2017-05-09T10:28:56.966Z,1009.56
2017-05-09T10:29:57.807Z,1009.62
2017-05-09T10:30:58.446Z,1009.66
2017-05-09T10:31:59.084Z,1009.66
2017-05-09T10:32:59.721Z,1009.70
2017-05-09T10:34:00.360Z,1009.74
2017-05-09T10:35:01.003Z,1009.79
2017-05-09T10:36:01.644Z,1009.89
2017-05-09T10:37:02.284Z,1009.72
2017-05-09T10:38:03.128Z,1009.80
2017-05-09T10:39:03.772Z,1009.81
2017-05-09T10:40:04.411Z,1009.90
2017-05-09T10:41:05.051Z,1009.98
2017-05-09T10:42:05.692Z,1010.05
2017-05-09T10:43:06.330Z,1009.83
2017-05-09T10:44:06.975Z,1009.89
2017-05-09T10:45:07.620Z,1009.87
2017-05-09T10:46:08.466Z,1009.93
2017-05-09T10:47:09.104Z,1009.96
2017-05-09T10:48:09.745Z,1009.94
2017-05-09T10:49:10.389Z,1009.93
2017-05-09T10:50:11.031Z,1009.97
2017-05-09T10:51:11.674Z,1010.11
2017-05-09T10:52:12.316Z,1010.13
2017-05-09T10:53:12.959Z,1010.18
2017-05-09T10:54:13.801Z,1010.11
2017-05-09T10:55:14.445Z,1010.14
2017-05-09T10:56:15.091Z,1010.09
2017-05-09T10:57:15.733Z,1010.07
2017-05-09T10:58:16.373Z,1010.15
2017-05-09T10:59:17.014Z,1010.32
2017-05-09T11:00:17.652Z,1010.15
2017-05-09T11:01:18.295Z,1010.10
2017-05-09T11:02:18.937Z,1010.16
2017-05-09T11:03:19.730Z,1010.16
2017-05-09T11:04:20.370Z,1010.23
2017-05-09T11:05:21.007Z,1010.27
2017-05-09T11:06:21.652Z,1010.27
2017-05-09T11:07:22.295Z,1010.30
2017-05-09T11:08:22.935Z,1010.30
2017-05-09T11:09:23.585Z,1010.43
2017-05-09T11:10:24.226Z,1010.32
2017-05-09T11:11:25.063Z,1010.31
2017-05-09T11:12:25.701Z,1010.45
2017-05-09T11:13:26.403Z,1010.41
2017-05-09T11:14:27.043Z,1010.44
2017-05-09T11:15:27.685Z,1010.37
2017-05-09T11:16:28.321Z,1010.41
2017-05-09T11:17:28.965Z,1010.46
2017-05-09T11:18:29.604Z,1010.43
2017-05-09T11:19:30.396Z,1010.33
2017-05-09T11:20:31.040Z,1010.36
2017-05-09T11:21:31.683Z,1010.28
2017-05-09T11:22:32.327Z,1010.34
2017-05-09T11:23:32.971Z,1010.34
2017-05-09T11:24:33.611Z,1010.28
2017-05-09T11:25:34.249Z,1010.22
2017-05-09T11:26:34.890Z,1010.22
2017-05-09T11:27:35.729Z,1010.21
2017-05-09T11:28:36.373Z,1010.27
2017-05-09T11:29:37.013Z,1010.27
2017-05-09T11:30:37.657Z,1010.22
2017-05-09T11:31:38.298Z,1010.20
2017-05-09T11:32:38.940Z,1010.17
2017-05-09T11:33:39.583Z,1010.10
2017-05-09T11:34:40.226Z,1010.15
2017-05-09T11:35:41.118Z,1010.08
2017-05-09T11:36:41.760Z,1010.01
2017-05-09T11:37:42.398Z,1010.01
2017-05-09T11:38:43.044Z,1010.05
2017-05-09T11:39:43.685Z,1010.07
2017-05-09T11:40:44.333Z,1010.04
2017-05-09T11:41:44.969Z,1010.04
2017-05-09T11:42:45.605Z,1010.09
2017-05-09T11:43:46.245Z,1010.15
2017-05-09T11:44:47.238Z,1010.06
2017-05-09T11:45:47.884Z,1010.07
2017-05-09T11:46:48.519Z,1009.98
2017-05-09T11:47:49.160Z,1010.04
2017-05-09T11:48:49.801Z,1010.08
2017-05-09T11:49:50.444Z,1010.03
2017-05-09T11:50:51.084Z,1009.96
2017-05-09T11:51:51.724Z,1009.88
2017-05-09T11:52:52.668Z,1009.95
2017-05-09T11:53:53.315Z,1009.93
2017-05-09T11:54:53.957Z,1009.88
2017-05-09T11:55:54.599Z,1009.87
2017-05-09T11:56:55.239Z,1009.87
2017-05-09T11:57:55.885Z,1009.94
2017-05-09T11:58:56.523Z,1009.84
2017-05-09T11:59:57.170Z,1009.82
2017-05-09T12:00:57.967Z,1009.93
2017-05-09T12:01:58.610Z,1009.88
2017-05-09T12:02:59.252Z,1009.86
2017-05-09T12:03:59.898Z,1009.93
2017-05-09T12:05:00.543Z,1009.95
2017-05-09T12:06:01.189Z,1010.00
2017-05-09T12:07:01.846Z,1009.98
2017-05-09T12:08:02.541Z,1009.90
2017-05-09T12:09:03.541Z,1009.80
2017-05-09T12:10:04.181Z,1009.85
2017-05-09T12:11:04.829Z,1009.88
2017-05-09T12:12:05.475Z,1009.85
2017-05-09T12:13:06.123Z,1009.86
2017-05-09T12:14:06.767Z,1009.76